createdAt,value
2019-03-13T00:00:16.037Z,44.30
2019-03-13T00:04:35.861Z,45.50
2019-03-13T00:08:54.414Z,46.60
2019-03-13T00:13:12.766Z,47.20
2019-03-13T00:17:30.922Z,47.60
2019-03-13T00:21:49.091Z,48.20
2019-03-13T00:26:07.758Z,48.90
2019-03-13T00:30:26.028Z,48.30
2019-03-13T00:34:44.384Z,48.40
2019-03-13T00:39:02.525Z,48.60
2019-03-13T00:43:22.465Z,48.40
2019-03-13T00:47:40.652Z,48.00
2019-03-13T00:51:58.821Z,47.70
2019-03-13T00:56:16.905Z,47.70
2019-03-13T01:01:00.796Z,47.80
2019-03-13T01:05:40.835Z,48.60
2019-03-13T01:09:59.328Z,48.10
2019-03-13T01:14:17.571Z,48.40
2019-03-13T01:18:35.898Z,48.70
2019-03-13T01:22:54.141Z,48.90
2019-03-13T01:27:12.421Z,49.00
2019-03-13T01:32:04.634Z,49.70
2019-03-13T01:36:22.790Z,49.30
2019-03-13T01:40:40.880Z,49.40
2019-03-13T01:44:59.006Z,49.60
2019-03-13T01:49:17.620Z,49.60
2019-03-13T01:53:35.774Z,49.70
2019-03-13T01:57:54.438Z,49.50
2019-03-13T02:02:12.920Z,50.40
2019-03-13T02:06:32.121Z,50.40
2019-03-13T02:10:50.530Z,50.30
2019-03-13T02:15:11.022Z,50.10
2019-03-13T02:19:29.278Z,50.20
2019-03-13T02:23:47.467Z,50.20
2019-03-13T02:28:05.633Z,49.90
2019-03-13T02:32:23.799Z,49.80
2019-03-13T02:36:42.112Z,49.70
2019-03-13T02:41:00.243Z,49.60
2019-03-13T02:45:18.516Z,49.30
2019-03-13T02:49:36.686Z,49.40
2019-03-13T02:53:55.015Z,49.30
2019-03-13T02:58:13.623Z,49.50
2019-03-13T03:02:40.151Z,49.50
2019-03-13T03:06:58.432Z,49.60
2019-03-13T03:11:16.706Z,49.80
2019-03-13T03:15:34.724Z,50.00
2019-03-13T03:19:52.877Z,50.10
2019-03-13T03:24:11.100Z,50.20
2019-03-13T03:28:29.194Z,50.30
2019-03-13T03:32:47.433Z,50.20
2019-03-13T03:37:05.588Z,50.20
2019-03-13T03:41:23.793Z,50.20
2019-03-13T03:45:41.868Z,50.20
2019-03-13T03:50:00.128Z,50.20
2019-03-13T03:54:18.302Z,50.30
2019-03-13T03:58:36.489Z,50.50
2019-03-13T04:02:54.591Z,50.70
2019-03-13T04:07:12.742Z,50.80
2019-03-13T04:11:32.382Z,50.90
2019-03-13T04:15:51.056Z,50.40
2019-03-13T04:20:10.423Z,50.50
2019-03-13T04:24:28.484Z,50.50
2019-03-13T04:28:46.612Z,50.50
2019-03-13T04:33:04.892Z,50.60
2019-03-13T04:37:23.683Z,50.70
2019-03-13T04:41:42.086Z,50.60
2019-03-13T04:46:00.665Z,50.70
2019-03-13T04:50:19.110Z,50.70
2019-03-13T04:54:37.456Z,50.60
2019-03-13T04:58:55.941Z,50.70
2019-03-13T05:03:14.678Z,50.80
2019-03-13T05:07:32.882Z,51.00
2019-03-13T05:11:51.139Z,51.20
2019-03-13T05:16:09.550Z,51.40
2019-03-13T05:20:27.864Z,51.70
2019-03-13T05:24:46.090Z,51.70
2019-03-13T05:29:04.114Z,51.70
2019-03-13T05:33:22.284Z,51.50
2019-03-13T05:37:40.486Z,51.30
2019-03-13T05:41:58.735Z,51.10
2019-03-13T05:46:20.177Z,51.10
2019-03-13T05:50:38.453Z,51.10
2019-03-13T05:54:56.701Z,51.00
2019-03-13T05:59:15.739Z,51.00
2019-03-13T06:03:34.475Z,51.10
2019-03-13T06:07:52.698Z,51.20
2019-03-13T06:12:10.990Z,51.20
2019-03-13T06:16:30.203Z,51.40
2019-03-13T06:20:48.455Z,51.50
2019-03-13T06:25:07.742Z,51.60
2019-03-13T06:29:26.050Z,51.70
2019-03-13T06:33:45.255Z,52.20
2019-03-13T06:38:03.807Z,52.00
2019-03-13T06:42:22.018Z,52.20
2019-03-13T06:46:40.132Z,52.40
2019-03-13T06:51:01.889Z,52.70
2019-03-13T06:55:20.631Z,53.10
2019-03-13T06:59:56.911Z,53.70
2019-03-13T07:04:40.142Z,53.50
2019-03-13T07:09:20.494Z,53.00
2019-03-13T07:13:57.527Z,52.50
2019-03-13T07:18:43.476Z,52.60
2019-03-13T07:23:09.324Z,53.10
2019-03-13T07:27:36.202Z,53.20
2019-03-13T07:32:13.337Z,53.30
2019-03-13T07:36:38.764Z,53.30
2019-03-13T07:41:09.064Z,52.30
2019-03-13T07:45:45.157Z,51.10
2019-03-13T07:50:22.265Z,51.50
2019-03-13T07:55:00.590Z,50.30
2019-03-13T07:59:45.280Z,49.80
2019-03-13T08:04:24.542Z,49.60
2019-03-13T08:09:19.927Z,50.30
2019-03-13T08:13:46.542Z,53.70
2019-03-13T08:18:22.248Z,53.80
2019-03-13T08:23:17.602Z,53.60
2019-03-13T08:27:54.638Z,55.30
2019-03-13T08:32:38.923Z,53.90
2019-03-13T08:37:22.469Z,48.90
2019-03-13T08:41:54.343Z,47.80
2019-03-13T08:46:32.789Z,43.60
2019-03-13T08:51:12.987Z,43.20
2019-03-13T08:55:48.749Z,42.20
2019-03-13T09:00:32.347Z,42.30
2019-03-13T09:05:07.226Z,42.10
2019-03-13T09:09:47.724Z,42.20
2019-03-13T09:14:27.706Z,42.50
2019-03-13T09:18:54.812Z,47.00
2019-03-13T09:23:31.933Z,48.60
2019-03-13T09:28:13.905Z,49.50
2019-03-13T09:33:00.544Z,47.30
2019-03-13T09:37:38.059Z,48.20
2019-03-13T09:42:18.018Z,46.20
2019-03-13T09:47:04.716Z,48.20
2019-03-13T09:51:44.447Z,47.00
2019-03-13T09:56:25.904Z,44.10
2019-03-13T10:01:02.891Z,41.00
2019-03-13T10:05:49.061Z,38.60
2019-03-13T10:10:25.971Z,40.10
2019-03-13T10:15:08.853Z,41.80
2019-03-13T10:19:37.687Z,43.60
2019-03-13T10:24:14.691Z,45.90
2019-03-13T10:28:51.446Z,42.20
2019-03-13T10:33:37.927Z,38.00
2019-03-13T10:38:43.774Z,40.70
2019-03-13T10:43:26.108Z,39.50
2019-03-13T10:48:05.702Z,40.50
2019-03-13T10:52:57.986Z,37.90
2019-03-13T10:57:59.217Z,38.20
2019-03-13T11:03:03.448Z,38.00
2019-03-13T11:07:42.958Z,37.90
2019-03-13T11:12:24.782Z,39.20
2019-03-13T11:17:19.933Z,37.40
2019-03-13T11:21:46.533Z,35.00
2019-03-13T11:26:22.635Z,35.60
2019-03-13T11:30:59.001Z,34.20
2019-03-13T11:35:41.945Z,34.30
2019-03-13T11:40:17.759Z,34.10
2019-03-13T11:44:46.228Z,34.60
2019-03-13T11:49:32.767Z,35.00
2019-03-13T11:54:15.928Z,35.00
2019-03-13T11:58:56.169Z,35.30
2019-03-13T12:03:33.256Z,35.40
2019-03-13T12:08:09.845Z,36.40
2019-03-13T12:12:50.023Z,37.20
2019-03-13T12:17:23.821Z,37.60
2019-03-13T12:22:09.851Z,37.90
2019-03-13T12:26:58.842Z,38.90
2019-03-13T12:31:33.272Z,39.20
2019-03-13T12:36:13.393Z,39.60
2019-03-13T12:40:53.190Z,40.20
2019-03-13T12:45:33.784Z,39.60
2019-03-13T12:50:20.207Z,39.00
2019-03-13T12:54:50.688Z,39.90
2019-03-13T12:59:27.669Z,39.80
2019-03-13T13:04:09.123Z,40.80
2019-03-13T13:09:04.624Z,41.50
2019-03-13T13:13:42.097Z,40.20
2019-03-13T13:18:19.098Z,39.50
2019-03-13T13:22:37.396Z,41.00
2019-03-13T13:26:55.579Z,41.60
2019-03-13T13:31:13.587Z,42.40
2019-03-13T13:35:31.749Z,42.60
2019-03-13T13:39:50.150Z,43.20
2019-03-13T13:44:08.376Z,44.10
2019-03-13T13:48:26.615Z,45.00
2019-03-13T13:52:44.843Z,45.10
2019-03-13T13:57:02.946Z,45.80
2019-03-13T14:01:21.206Z,45.30
2019-03-13T14:05:41.117Z,45.50
2019-03-13T14:10:00.159Z,45.60
2019-03-13T14:14:18.603Z,46.00
2019-03-13T14:18:37.132Z,46.00
2019-03-13T14:22:55.403Z,46.20
2019-03-13T14:27:15.106Z,46.40
2019-03-13T14:31:33.361Z,46.10
2019-03-13T14:35:51.522Z,46.10
2019-03-13T14:40:10.853Z,46.10
2019-03-13T14:44:29.191Z,45.80
2019-03-13T14:48:47.349Z,45.00
2019-03-13T14:53:05.495Z,44.70
2019-03-13T14:57:23.621Z,44.20
2019-03-13T15:01:42.166Z,42.50
2019-03-13T15:06:00.434Z,42.30
2019-03-13T15:10:19.020Z,42.00
2019-03-13T15:14:39.327Z,42.20
2019-03-13T15:18:58.430Z,42.00
2019-03-13T15:23:16.715Z,42.20
2019-03-13T15:27:34.962Z,42.40
2019-03-13T15:31:53.418Z,42.40
2019-03-13T15:36:11.855Z,42.50
2019-03-13T15:40:30.095Z,42.50
2019-03-13T15:44:48.553Z,43.40
2019-03-13T15:49:08.088Z,41.90
2019-03-13T15:53:26.137Z,42.20
2019-03-13T15:57:44.346Z,42.00
2019-03-13T16:02:02.565Z,42.40
2019-03-13T16:06:20.734Z,43.00
2019-03-13T16:10:39.241Z,43.40
2019-03-13T16:14:57.449Z,43.10
2019-03-13T16:19:15.672Z,43.30
2019-03-13T16:23:33.857Z,43.20
2019-03-13T16:27:52.059Z,43.30
2019-03-13T16:32:13.601Z,43.60
2019-03-13T16:36:32.053Z,43.50
2019-03-13T16:40:51.324Z,43.50
2019-03-13T16:45:11.019Z,43.80
2019-03-13T16:49:29.337Z,44.00
2019-03-13T16:53:47.663Z,44.00
2019-03-13T16:58:07.206Z,43.80
2019-03-13T17:02:25.399Z,43.90
2019-03-13T17:06:43.684Z,43.80
2019-03-13T17:11:01.717Z,43.80
2019-03-13T17:15:22.619Z,44.00
2019-03-13T17:19:40.772Z,44.80
2019-03-13T17:23:58.987Z,44.50
2019-03-13T17:28:18.232Z,44.70
2019-03-13T17:32:36.496Z,44.90
2019-03-13T17:36:54.638Z,45.20
2019-03-13T17:41:13.021Z,45.30
2019-03-13T17:45:32.252Z,45.50
2019-03-13T17:49:50.579Z,45.50
2019-03-13T17:54:11.043Z,45.60
2019-03-13T17:58:29.268Z,45.70
2019-03-13T18:02:47.547Z,45.80
2019-03-13T18:07:06.550Z,45.90
2019-03-13T18:11:24.737Z,46.10
2019-03-13T18:15:43.135Z,46.70
2019-03-13T18:20:01.864Z,46.60
2019-03-13T18:24:20.935Z,47.40
2019-03-13T18:28:39.321Z,47.10
2019-03-13T18:32:58.146Z,47.00
2019-03-13T18:37:16.603Z,47.20
2019-03-13T18:41:35.031Z,47.10
2019-03-13T18:45:53.181Z,47.50
2019-03-13T18:50:12.541Z,48.00
2019-03-13T18:54:31.017Z,48.50
2019-03-13T18:58:50.009Z,49.60
2019-03-13T19:03:09.829Z,50.10
2019-03-13T19:07:28.384Z,50.20
2019-03-13T19:11:46.535Z,50.50
2019-03-13T19:16:05.017Z,51.30
2019-03-13T19:20:24.500Z,51.90
2019-03-13T19:24:42.687Z,51.90
2019-03-13T19:29:01.722Z,52.00
2019-03-13T19:33:20.139Z,51.90
2019-03-13T19:37:38.757Z,52.10
2019-03-13T19:41:57.088Z,51.90
2019-03-13T19:46:16.080Z,51.60
2019-03-13T19:50:34.189Z,51.70
2019-03-13T19:54:52.699Z,52.80
2019-03-13T19:59:11.302Z,52.90
2019-03-13T20:03:29.717Z,52.90
2019-03-13T20:07:48.418Z,52.70
2019-03-13T20:12:06.617Z,52.60
2019-03-13T20:16:27.250Z,52.40
2019-03-13T20:20:45.721Z,53.00
2019-03-13T20:25:04.102Z,52.90
2019-03-13T20:29:23.284Z,53.10
2019-03-13T20:33:42.208Z,53.10
2019-03-13T20:38:00.402Z,53.00
2019-03-13T20:42:18.710Z,52.90
2019-03-13T20:46:37.176Z,53.00
2019-03-13T20:50:55.526Z,54.10
2019-03-13T20:55:15.028Z,53.60
2019-03-13T20:59:33.476Z,53.50
2019-03-13T21:03:52.771Z,53.20
2019-03-13T21:08:11.427Z,53.20
2019-03-13T21:12:30.225Z,53.80
2019-03-13T21:16:50.321Z,53.30
2019-03-13T21:21:11.366Z,53.80
2019-03-13T21:25:31.836Z,53.70
2019-03-13T21:29:52.657Z,53.80
2019-03-13T21:34:12.092Z,53.70
2019-03-13T21:38:32.571Z,54.00
2019-03-13T21:42:54.402Z,53.90
2019-03-13T21:47:12.325Z,55.00
2019-03-13T21:51:30.683Z,56.20
2019-03-13T21:55:48.885Z,57.20
2019-03-13T22:00:12.817Z,58.90
2019-03-13T22:04:31.853Z,59.60
2019-03-13T22:08:50.094Z,60.70
2019-03-13T22:13:08.399Z,61.30
2019-03-13T22:17:27.070Z,62.60
2019-03-13T22:21:45.290Z,62.50
2019-03-13T22:26:03.315Z,62.90
2019-03-13T22:30:22.251Z,63.10
2019-03-13T22:34:40.658Z,63.70
2019-03-13T22:38:58.928Z,63.70
2019-03-13T22:43:17.117Z,63.70
2019-03-13T22:47:42.696Z,64.00
2019-03-13T22:51:55.327Z,64.20
2019-03-13T22:56:13.958Z,63.80
2019-03-13T23:01:00.165Z,64.00
2019-03-13T23:05:20.319Z,64.10
2019-03-13T23:09:38.932Z,64.30
2019-03-13T23:13:57.032Z,64.50
2019-03-13T23:18:18.057Z,64.60
2019-03-13T23:22:35.256Z,65.20
2019-03-13T23:26:53.415Z,65.10
2019-03-13T23:31:11.592Z,65.30
2019-03-13T23:35:29.841Z,65.50
2019-03-13T23:39:48.079Z,65.70
2019-03-13T23:44:06.326Z,65.60
2019-03-13T23:48:24.497Z,65.50
2019-03-13T23:52:42.571Z,65.60
2019-03-13T23:57:00.737Z,66.70
